createdAt,value
2022-10-09T00:01:31.042Z,101644.97
2022-10-09T00:04:00.884Z,101640.56
2022-10-09T00:06:31.635Z,101634.50
2022-10-09T00:09:01.823Z,101644.09
2022-10-09T00:11:33.609Z,101638.88
2022-10-09T00:14:03.530Z,101638.00
2022-10-09T00:16:32.010Z,101641.50
2022-10-09T00:19:00.543Z,101636.28
2022-10-09T00:21:31.813Z,101633.69
2022-10-09T00:24:03.406Z,101637.16
2022-10-09T00:26:33.535Z,101628.47
2022-10-09T00:29:01.881Z,101620.63
2022-10-09T00:31:30.310Z,101624.09
2022-10-09T00:33:58.672Z,101626.72
2022-10-09T00:36:28.549Z,101628.50
2022-10-09T00:38:57.194Z,101618.03
2022-10-09T00:41:28.566Z,101626.75
2022-10-09T00:44:00.424Z,101618.06
2022-10-09T00:46:41.356Z,101624.16
2022-10-09T00:49:18.928Z,101623.28
2022-10-09T00:51:49.072Z,101621.56
2022-10-09T00:54:25.318Z,101618.94
2022-10-09T00:56:54.549Z,101623.28
2022-10-09T00:59:24.988Z,101621.53
2022-10-09T01:01:53.705Z,101620.66
2022-10-09T01:04:22.082Z,101625.03
2022-10-09T01:07:19.975Z,101632.00
2022-10-09T01:09:56.865Z,101616.31
2022-10-09T01:12:37.989Z,101616.31
2022-10-09T01:15:17.909Z,101610.22
2022-10-09T01:17:57.940Z,101618.94
2022-10-09T01:20:43.228Z,101608.47
2022-10-09T01:23:44.453Z,101607.56
2022-10-09T01:26:34.417Z,101598.88
2022-10-09T01:29:09.039Z,101602.34
2022-10-09T01:31:41.805Z,101597.13
2022-10-09T01:34:12.593Z,101605.84
2022-10-09T01:36:41.742Z,101595.38
2022-10-09T01:39:14.737Z,101601.47
2022-10-09T01:41:43.640Z,101598.88
2022-10-09T01:44:22.919Z,101597.13
2022-10-09T01:46:51.618Z,101587.53
2022-10-09T01:49:43.135Z,101593.63
2022-10-09T01:52:27.968Z,101591.03
2022-10-09T01:55:11.768Z,101586.66
2022-10-09T01:57:49.216Z,101586.66
2022-10-09T02:00:19.796Z,101583.16
2022-10-09T02:02:49.084Z,101581.41
2022-10-09T02:05:23.676Z,101584.03
2022-10-09T02:07:52.849Z,101578.81
2022-10-09T02:10:23.087Z,101577.94
2022-10-09T02:12:56.292Z,101573.56
2022-10-09T02:15:32.034Z,101570.06
2022-10-09T02:18:09.005Z,101573.56
2022-10-09T02:20:41.720Z,101581.41
2022-10-09T02:23:11.325Z,101572.69
2022-10-09T02:25:39.773Z,101574.41
2022-10-09T02:28:09.241Z,101572.66
2022-10-09T02:30:53.005Z,101571.78
2022-10-09T02:33:31.359Z,101570.94
2022-10-09T02:36:00.118Z,101573.53
2022-10-09T02:38:29.044Z,101571.78
2022-10-09T02:41:00.093Z,101570.03
2022-10-09T02:43:29.265Z,101560.44
2022-10-09T02:45:58.836Z,101576.13
2022-10-09T02:48:27.123Z,101573.50
2022-10-09T02:50:55.641Z,101567.41
2022-10-09T02:53:23.930Z,101569.13
2022-10-09T02:55:52.129Z,101567.38
2022-10-09T02:58:20.409Z,101576.06
2022-10-09T03:00:50.103Z,101570.81
2022-10-09T03:03:20.818Z,101572.56
2022-10-09T03:05:49.521Z,101567.34
2022-10-09T03:08:17.728Z,101570.78
2022-10-09T03:10:45.970Z,101563.84
2022-10-09T03:13:14.537Z,101567.34
2022-10-09T03:15:43.076Z,101560.34
2022-10-09T03:18:11.647Z,101562.97
2022-10-09T03:20:41.416Z,101559.50
2022-10-09T03:23:09.633Z,101561.22
2022-10-09T03:25:37.846Z,101559.50
2022-10-09T03:28:06.158Z,101557.72
2022-10-09T03:30:34.421Z,101564.72
2022-10-09T03:33:03.155Z,101562.97
2022-10-09T03:35:31.336Z,101560.34
2022-10-09T03:38:00.856Z,101554.28
2022-10-09T03:40:29.481Z,101568.19
2022-10-09T03:42:57.894Z,101564.72
2022-10-09T03:45:26.645Z,101558.63
2022-10-09T03:47:56.541Z,101566.44
2022-10-09T03:50:24.753Z,101564.72
2022-10-09T03:52:53.011Z,101557.75
2022-10-09T03:55:22.575Z,101567.31
2022-10-09T03:57:50.773Z,101567.31
2022-10-09T04:00:19.231Z,101559.50
2022-10-09T04:02:47.883Z,101556.00
2022-10-09T04:05:16.446Z,101565.56
2022-10-09T04:07:45.025Z,101562.09
2022-10-09T04:10:13.571Z,101562.94
2022-10-09T04:12:43.243Z,101558.59
2022-10-09T04:15:12.058Z,101569.91
2022-10-09T04:17:40.300Z,101567.31
2022-10-09T04:20:09.680Z,101566.41
2022-10-09T04:22:37.854Z,101561.19
2022-10-09T04:25:07.089Z,101561.19
2022-10-09T04:27:35.579Z,101555.97
2022-10-09T04:30:06.656Z,101553.34
2022-10-09T04:32:34.913Z,101565.50
2022-10-09T04:35:03.140Z,101559.44
2022-10-09T04:37:31.375Z,101549.88
2022-10-09T04:39:59.883Z,101561.16
2022-10-09T04:42:28.073Z,101555.06
2022-10-09T04:44:56.254Z,101561.16
2022-10-09T04:47:25.922Z,101558.53
2022-10-09T04:49:54.072Z,101554.16
2022-10-09T04:52:22.559Z,101562.84
2022-10-09T04:54:51.095Z,101555.00
2022-10-09T04:57:19.735Z,101549.78
2022-10-09T04:59:48.252Z,101555.84
2022-10-09T05:02:16.813Z,101541.06
2022-10-09T05:04:48.085Z,101547.16
2022-10-09T05:07:16.623Z,101547.13
2022-10-09T05:09:44.834Z,101537.56
2022-10-09T05:12:13.428Z,101539.28
2022-10-09T05:14:41.668Z,101557.56
2022-10-09T05:17:14.211Z,101554.06
2022-10-09T05:19:42.951Z,101554.91
2022-10-09T05:22:12.854Z,101562.75
2022-10-09T05:24:41.176Z,101558.41
2022-10-09T05:27:09.584Z,101559.25
2022-10-09T05:29:38.104Z,101554.91
2022-10-09T05:32:06.402Z,101554.91
2022-10-09T05:34:35.428Z,101558.38
2022-10-09T05:37:03.946Z,101558.34
2022-10-09T05:39:35.811Z,101558.34
2022-10-09T05:42:04.532Z,101568.78
2022-10-09T05:44:32.737Z,101570.50
2022-10-09T05:47:01.017Z,101565.28
2022-10-09T05:49:29.257Z,101567.00
2022-10-09T05:51:57.525Z,101567.00
2022-10-09T05:54:25.952Z,101568.78
2022-10-09T05:56:55.550Z,101567.88
2022-10-09T05:59:24.056Z,101560.97
2022-10-09T06:01:54.777Z,101559.25
2022-10-09T06:04:25.185Z,101563.63
2022-10-09T06:06:53.792Z,101564.50
2022-10-09T06:09:25.418Z,101561.06
2022-10-09T06:11:56.038Z,101566.31
2022-10-09T06:14:25.055Z,101562.03
2022-10-09T06:16:53.677Z,101565.53
2022-10-09T06:19:22.905Z,101572.53
2022-10-09T06:21:51.849Z,101569.13
2022-10-09T06:24:28.239Z,101568.28
2022-10-09T06:26:59.346Z,101562.25
2022-10-09T06:29:28.201Z,101566.63
2022-10-09T06:31:56.725Z,101560.53
2022-10-09T06:34:25.783Z,101550.06
2022-10-09T06:36:53.996Z,101563.16
2022-10-09T06:39:22.640Z,101563.09
2022-10-09T06:41:51.207Z,101555.22
2022-10-09T06:44:47.178Z,101557.72
2022-10-09T06:47:15.389Z,101555.00
2022-10-09T06:49:43.546Z,101557.50
2022-10-09T06:52:11.824Z,101565.22
2022-10-09T06:54:40.076Z,101562.41
2022-10-09T06:57:08.593Z,101557.03
2022-10-09T06:59:36.777Z,101560.34
2022-10-09T07:02:06.495Z,101555.75
2022-10-09T07:04:34.801Z,101557.25
2022-10-09T07:07:03.164Z,101558.66
2022-10-09T07:09:31.432Z,101565.41
2022-10-09T07:11:59.652Z,101560.72
2022-10-09T07:14:28.062Z,101556.06
2022-10-09T07:16:56.230Z,101553.88
2022-10-09T07:19:25.776Z,101560.38
2022-10-09T07:21:54.068Z,101559.91
2022-10-09T07:24:24.536Z,101557.69
2022-10-09T07:26:55.314Z,101553.50
2022-10-09T07:29:24.003Z,101555.47
2022-10-09T07:31:52.199Z,101553.84
2022-10-09T07:34:20.624Z,101562.00
2022-10-09T07:36:50.183Z,101544.50
2022-10-09T07:39:20.006Z,101544.41
2022-10-09T07:41:51.524Z,101549.53
2022-10-09T07:44:20.216Z,101550.31
2022-10-09T07:46:50.328Z,101546.88
2022-10-09T07:49:18.549Z,101537.34
2022-10-09T07:51:46.938Z,101543.31
2022-10-09T07:54:16.740Z,101535.22
2022-10-09T07:56:45.205Z,101535.88
2022-10-09T07:59:16.364Z,101529.53
2022-10-09T08:01:44.673Z,101532.16
2022-10-09T08:04:13.038Z,101522.78
2022-10-09T08:06:41.371Z,101531.78
2022-10-09T08:09:10.171Z,101538.31
2022-10-09T08:11:41.038Z,101535.28
2022-10-09T08:14:18.059Z,101533.84
2022-10-09T08:16:47.975Z,101526.41
2022-10-09T08:19:16.661Z,101530.16
2022-10-09T08:21:44.944Z,101528.34
2022-10-09T08:24:13.398Z,101518.78
2022-10-09T08:26:44.214Z,101516.44
2022-10-09T08:29:15.969Z,101512.38
2022-10-09T08:31:44.356Z,101518.53
2022-10-09T08:34:12.750Z,101509.91
2022-10-09T08:36:41.524Z,101509.34
2022-10-09T08:39:09.948Z,101506.75
2022-10-09T08:41:48.237Z,101514.28
2022-10-09T08:44:21.875Z,101509.78
2022-10-09T08:47:06.142Z,101512.44
2022-10-09T08:49:44.603Z,101509.78
2022-10-09T08:52:29.570Z,101498.50
2022-10-09T08:55:03.167Z,101510.22
2022-10-09T08:57:35.341Z,101505.66
2022-10-09T09:00:03.746Z,101500.41
2022-10-09T09:02:59.000Z,101500.16
2022-10-09T09:05:40.313Z,101488.66
2022-10-09T09:08:23.069Z,101488.66
2022-10-09T09:10:58.629Z,101482.19
2022-10-09T09:13:46.652Z,101488.44
2022-10-09T09:16:26.117Z,101477.03
2022-10-09T09:19:33.865Z,101480.13
2022-10-09T09:22:02.465Z,101473.88
2022-10-09T09:24:43.304Z,101469.34
2022-10-09T09:27:15.319Z,101468.81
2022-10-09T09:29:49.952Z,101461.94
2022-10-09T09:32:21.826Z,101470.50
2022-10-09T09:34:50.304Z,101453.41
2022-10-09T09:37:18.826Z,101455.44
2022-10-09T09:42:35.832Z,101437.63
2022-10-09T09:45:14.544Z,101435.91
2022-10-09T09:47:47.938Z,101424.44
2022-10-09T09:50:42.259Z,101423.59
2022-10-09T09:53:12.482Z,101418.72
2022-10-09T09:55:40.944Z,101418.28
2022-10-09T09:58:15.800Z,101415.09
2022-10-09T10:00:56.970Z,101408.66
2022-10-09T10:03:27.384Z,101408.66
2022-10-09T10:05:55.999Z,101408.50
2022-10-09T10:08:27.744Z,101400.31
2022-10-09T10:10:59.469Z,101403.41
2022-10-09T10:13:35.783Z,101396.69
2022-10-09T10:16:08.559Z,101395.25
2022-10-09T10:18:42.122Z,101387.56
2022-10-09T10:21:14.229Z,101376.22
2022-10-09T10:23:46.424Z,101365.13
2022-10-09T10:26:27.916Z,101375.69
2022-10-09T10:29:03.420Z,101363.25
2022-10-09T10:31:44.113Z,101368.84
2022-10-09T10:34:22.152Z,101359.25
2022-10-09T10:37:02.505Z,101363.88
2022-10-09T10:39:41.317Z,101360.00
2022-10-09T10:42:20.145Z,101347.97
2022-10-09T10:44:56.728Z,101351.41
2022-10-09T10:47:31.175Z,101352.03
2022-10-09T10:49:59.581Z,101342.22
2022-10-09T10:52:44.398Z,101341.34
2022-10-09T10:55:30.271Z,101338.75
2022-10-09T10:58:15.959Z,101336.56
2022-10-09T11:00:58.569Z,101331.63
2022-10-09T11:03:48.268Z,101326.56
2022-10-09T11:06:28.817Z,101324.72
2022-10-09T11:09:12.752Z,101317.84
2022-10-09T11:11:49.800Z,101311.78
2022-10-09T11:14:37.336Z,101316.22
2022-10-09T11:17:22.906Z,101309.00
2022-10-09T11:20:15.636Z,101304.09
2022-10-09T11:23:06.726Z,101302.78
2022-10-09T11:25:43.411Z,101301.25
2022-10-09T11:28:19.513Z,101298.69
2022-10-09T11:30:55.652Z,101299.91
2022-10-09T11:33:33.877Z,101301.59
2022-10-09T11:36:13.519Z,101286.38
2022-10-09T11:38:47.492Z,101282.59
2022-10-09T11:41:16.559Z,101279.72
2022-10-09T11:44:01.796Z,101268.84
2022-10-09T11:46:45.528Z,101265.50
2022-10-09T11:49:24.985Z,101263.16
2022-10-09T11:52:02.854Z,101249.38
2022-10-09T11:54:31.921Z,101250.97
2022-10-09T11:57:05.995Z,101255.75
2022-10-09T11:59:37.286Z,101246.50
2022-10-09T12:02:25.346Z,101244.22
2022-10-09T12:04:55.748Z,101242.25
2022-10-09T12:07:33.237Z,101230.81
2022-10-09T12:10:08.175Z,101223.44
2022-10-09T12:12:38.636Z,101228.94
2022-10-09T12:15:27.120Z,101217.78
2022-10-09T12:17:55.456Z,101204.06
2022-10-09T12:20:26.879Z,101202.69
2022-10-09T12:23:25.206Z,101196.47
2022-10-09T12:25:50.843Z,101200.41
2022-10-09T12:28:29.392Z,101187.06
2022-10-09T12:31:00.696Z,101188.84
2022-10-09T12:33:35.470Z,101191.00
2022-10-09T12:36:12.765Z,101182.13
2022-10-09T12:38:43.455Z,101169.38
2022-10-09T12:41:20.880Z,101169.72
2022-10-09T12:43:51.038Z,101171.53
2022-10-09T12:46:30.156Z,101159.75
2022-10-09T12:49:00.385Z,101160.16
2022-10-09T12:51:32.310Z,101152.16
2022-10-09T12:54:10.438Z,101153.03
2022-10-09T12:56:40.141Z,101148.00
2022-10-09T12:59:10.970Z,101143.81
2022-10-09T13:01:41.169Z,101139.63
2022-10-09T13:04:26.173Z,101131.53
2022-10-09T13:06:54.871Z,101133.28
2022-10-09T13:09:27.839Z,101119.84
2022-10-09T13:12:00.540Z,101123.31
2022-10-09T13:14:36.835Z,101114.53
2022-10-09T13:17:05.220Z,101109.72
2022-10-09T13:19:35.849Z,101115.16
2022-10-09T13:22:18.814Z,101108.75
2022-10-09T13:24:53.170Z,101100.81
2022-10-09T13:27:22.349Z,101103.97
2022-10-09T13:29:50.637Z,101093.47
2022-10-09T13:32:19.744Z,101093.09
2022-10-09T13:34:48.271Z,101084.06
2022-10-09T13:37:20.086Z,101086.88
2022-10-09T13:39:51.605Z,101082.03
2022-10-09T13:42:20.724Z,101073.31
2022-10-09T13:44:49.216Z,101076.91
2022-10-09T13:47:20.763Z,101066.75
2022-10-09T13:49:52.963Z,101067.78
2022-10-09T13:52:21.219Z,101065.03
2022-10-09T13:54:50.891Z,101063.97
2022-10-09T13:57:19.452Z,101058.63
2022-10-09T13:59:48.157Z,101063.97
2022-10-09T14:02:16.792Z,101065.66
2022-10-09T14:04:45.116Z,101063.00
2022-10-09T14:07:13.679Z,101056.63
2022-10-09T14:09:42.012Z,101053.25
2022-10-09T14:12:11.656Z,101045.94
2022-10-09T14:14:39.950Z,101038.09
2022-10-09T14:17:08.496Z,101044.00
2022-10-09T14:19:37.123Z,101037.66
2022-10-09T14:22:05.636Z,101033.56
2022-10-09T14:24:34.056Z,101026.16
2022-10-09T14:27:02.287Z,101021.63
2022-10-09T14:29:32.093Z,101017.44
2022-10-09T14:32:00.329Z,101023.56
2022-10-09T14:34:28.762Z,101014.09
2022-10-09T14:36:57.013Z,101021.22
2022-10-09T14:39:25.396Z,101011.50
2022-10-09T14:41:53.623Z,101012.59
2022-10-09T14:44:22.136Z,101014.03
2022-10-09T14:46:51.669Z,101019.34
2022-10-09T14:49:21.452Z,101002.94
2022-10-09T14:51:49.674Z,101013.75
2022-10-09T14:54:18.159Z,101005.91
2022-10-09T14:56:46.336Z,100999.19
2022-10-09T14:59:14.632Z,101000.34
2022-10-09T15:01:43.122Z,100999.88
2022-10-09T15:04:14.124Z,100991.88
2022-10-09T15:06:42.778Z,100986.84
2022-10-09T15:09:10.986Z,100997.00
2022-10-09T15:11:39.293Z,100984.94
2022-10-09T15:14:07.881Z,100982.78
2022-10-09T15:16:36.527Z,100974.56
2022-10-09T15:19:05.680Z,100979.78
2022-10-09T15:21:36.958Z,100974.56
2022-10-09T15:24:07.085Z,100976.38
2022-10-09T15:26:37.256Z,100969.06
2022-10-09T15:29:08.598Z,100972.22
2022-10-09T15:31:39.388Z,100965.72
2022-10-09T15:34:11.221Z,100966.09
2022-10-09T15:36:43.077Z,100963.94
2022-10-09T15:39:11.951Z,100953.16
2022-10-09T15:41:42.796Z,100951.19
2022-10-09T15:44:17.673Z,100954.63
2022-10-09T15:46:47.290Z,100943.56
2022-10-09T15:49:15.651Z,100946.59
2022-10-09T15:51:45.384Z,100940.78
2022-10-09T15:54:14.712Z,100935.03
2022-10-09T15:56:43.224Z,100940.84
2022-10-09T15:59:13.598Z,100937.94
2022-10-09T16:01:41.852Z,100928.88
2022-10-09T16:04:10.251Z,100935.72
2022-10-09T16:06:39.212Z,100936.25
2022-10-09T16:09:09.113Z,100935.94
2022-10-09T16:11:37.367Z,100933.00
2022-10-09T16:14:05.738Z,100923.84
2022-10-09T16:16:34.620Z,100928.91
2022-10-09T16:19:05.071Z,100926.75
2022-10-09T16:21:34.066Z,100926.41
2022-10-09T16:24:02.497Z,100926.91
2022-10-09T16:26:32.182Z,100922.97
2022-10-09T16:29:01.595Z,100923.47
2022-10-09T16:31:34.651Z,100932.00
2022-10-09T16:34:03.866Z,100928.22
2022-10-09T16:36:32.467Z,100918.22
2022-10-09T16:39:00.800Z,100930.28
2022-10-09T16:41:29.040Z,100928.09
2022-10-09T16:44:00.151Z,100928.56
2022-10-09T16:46:31.556Z,100935.25
2022-10-09T16:49:02.684Z,100934.94
2022-10-09T16:51:33.453Z,100936.31
2022-10-09T16:54:04.688Z,100936.00
2022-10-09T16:56:36.620Z,100930.25
2022-10-09T16:59:08.860Z,100926.25
2022-10-09T17:01:40.242Z,100927.66
2022-10-09T17:04:08.496Z,100924.63
2022-10-09T17:06:36.984Z,100927.72
2022-10-09T17:09:13.726Z,100923.84
2022-10-09T17:11:42.683Z,100921.72
2022-10-09T17:14:12.923Z,100925.66
2022-10-09T17:16:43.589Z,100924.38
2022-10-09T17:19:11.966Z,100924.78
2022-10-09T17:21:40.348Z,100921.75
2022-10-09T17:24:08.856Z,100930.91
2022-10-09T17:26:37.571Z,100925.09
2022-10-09T17:29:07.381Z,100929.84
2022-10-09T17:31:36.963Z,100925.81
2022-10-09T17:34:06.573Z,100933.22
2022-10-09T17:36:39.875Z,100930.03
2022-10-09T17:39:12.085Z,100936.59
2022-10-09T17:41:40.489Z,100932.44
2022-10-09T17:44:09.635Z,100938.97
2022-10-09T17:46:39.336Z,100931.34
2022-10-09T17:49:07.841Z,100932.53
2022-10-09T17:51:39.514Z,100928.41
2022-10-09T17:54:12.013Z,100931.28
2022-10-09T17:56:41.358Z,100926.25
2022-10-09T17:59:10.142Z,100923.03
2022-10-09T18:01:39.963Z,100927.72
2022-10-09T18:04:08.302Z,100928.81
2022-10-09T18:06:36.932Z,100927.34
2022-10-09T18:09:05.864Z,100929.28
2022-10-09T18:11:34.148Z,100918.84
2022-10-09T18:14:03.764Z,100919.06
2022-10-09T18:16:38.009Z,100910.56
2022-10-09T18:19:11.439Z,100914.38
2022-10-09T18:21:41.704Z,100917.41
2022-10-09T18:24:10.260Z,100915.06
2022-10-09T18:26:38.956Z,100911.00
2022-10-09T18:29:07.556Z,100914.06
2022-10-09T18:31:36.660Z,100921.50
2022-10-09T18:34:04.904Z,100914.84
2022-10-09T18:36:34.947Z,100916.97
2022-10-09T18:39:06.830Z,100912.03
2022-10-09T18:41:38.074Z,100908.78
2022-10-09T18:44:12.094Z,100911.69
2022-10-09T18:46:45.951Z,100910.97
2022-10-09T18:49:18.642Z,100907.69
2022-10-09T18:51:49.414Z,100910.56
2022-10-09T18:54:19.349Z,100918.63
2022-10-09T18:56:48.200Z,100917.91
2022-10-09T18:59:20.368Z,100923.34
2022-10-09T19:01:48.940Z,100912.03
2022-10-09T19:04:18.883Z,100912.13
2022-10-09T19:06:48.864Z,100908.69
2022-10-09T19:09:17.494Z,100907.06
2022-10-09T19:11:45.840Z,100906.28
2022-10-09T19:14:15.793Z,100903.78
2022-10-09T19:16:44.041Z,100905.63
2022-10-09T19:19:12.602Z,100900.56
2022-10-09T19:21:44.042Z,100895.47
2022-10-09T19:24:14.740Z,100899.06
2022-10-09T19:26:43.108Z,100892.19
2022-10-09T19:29:11.940Z,100890.56
2022-10-09T19:31:40.151Z,100883.63
2022-10-09T19:34:08.764Z,100887.19
2022-10-09T19:36:37.563Z,100881.09
2022-10-09T19:39:06.393Z,100877.69
2022-10-09T19:41:36.417Z,100873.38
2022-10-09T19:44:04.613Z,100870.84
2022-10-09T19:46:32.815Z,100878.84
2022-10-09T19:49:01.861Z,100868.41
2022-10-09T19:51:30.184Z,100857.97
2022-10-09T19:53:59.075Z,100870.41
2022-10-09T19:56:30.467Z,100864.47
2022-10-09T19:59:02.796Z,100861.97
2022-10-09T20:01:32.834Z,100862.06
2022-10-09T20:04:04.147Z,100864.72
2022-10-09T20:06:32.621Z,100865.69
2022-10-09T20:09:00.808Z,100863.13
2022-10-09T20:11:29.135Z,100864.06
2022-10-09T20:13:57.680Z,100863.13
2022-10-09T20:16:31.925Z,100865.75
2022-10-09T20:19:00.947Z,100864.06
2022-10-09T20:21:31.737Z,100872.84
2022-10-09T20:24:01.620Z,100869.41
2022-10-09T20:26:31.393Z,100868.56
2022-10-09T20:29:00.042Z,100866.03
2022-10-09T20:31:31.065Z,100860.84
2022-10-09T20:33:59.933Z,100863.56
2022-10-09T20:36:31.497Z,100868.97
2022-10-09T20:39:02.502Z,100865.47
2022-10-09T20:41:32.057Z,100876.03
2022-10-09T20:44:02.785Z,100862.91
2022-10-09T20:46:35.092Z,100866.47
2022-10-09T20:49:06.054Z,100862.13
2022-10-09T20:51:36.866Z,100856.03
2022-10-09T20:54:07.062Z,100854.31
2022-10-09T20:56:36.551Z,100864.06
2022-10-09T20:59:05.095Z,100860.59
2022-10-09T21:01:36.739Z,100858.88
2022-10-09T21:04:05.609Z,100860.59
2022-10-09T21:06:36.012Z,100852.75
2022-10-09T21:09:04.973Z,100854.56
2022-10-09T21:11:34.762Z,100852.91
2022-10-09T21:14:03.766Z,100857.38
2022-10-09T21:16:33.699Z,100853.00
2022-10-09T21:19:05.142Z,100859.16
2022-10-09T21:21:34.711Z,100859.25
2022-10-09T21:24:03.168Z,100851.44
2022-10-09T21:26:35.740Z,100854.91
2022-10-09T21:29:04.943Z,100848.75
2022-10-09T21:31:35.118Z,100849.66
2022-10-09T21:34:03.384Z,100852.28
2022-10-09T21:36:56.215Z,100842.69
2022-10-09T21:39:29.723Z,100839.22
2022-10-09T21:41:58.117Z,100847.16
2022-10-09T21:44:27.513Z,100839.31
2022-10-09T21:46:57.154Z,100838.59
2022-10-09T21:49:27.935Z,100833.44
2022-10-09T21:51:56.664Z,100845.00
2022-10-09T21:54:25.133Z,100839.88
2022-10-09T21:56:53.670Z,100841.78
2022-10-09T21:59:21.948Z,100843.66
2022-10-09T22:01:50.124Z,100834.19
2022-10-09T22:04:19.718Z,100841.34
2022-10-09T22:06:48.335Z,100841.44
2022-10-09T22:09:16.832Z,100845.91
2022-10-09T22:11:45.396Z,100842.47
2022-10-09T22:14:13.747Z,100839.91
2022-10-09T22:16:42.246Z,100841.75
2022-10-09T22:19:10.784Z,100843.59
2022-10-09T22:21:40.336Z,100835.88
2022-10-09T22:24:08.557Z,100842.13
2022-10-09T22:26:37.500Z,100839.59
2022-10-09T22:29:06.007Z,100839.66
2022-10-09T22:31:34.616Z,100835.41
2022-10-09T22:34:03.725Z,100832.84
2022-10-09T22:36:33.999Z,100832.91
2022-10-09T22:39:07.339Z,100834.69
2022-10-09T22:41:36.432Z,100835.63
2022-10-09T22:44:07.533Z,100832.16
2022-10-09T22:46:39.037Z,100835.69
2022-10-09T22:49:11.300Z,100834.91
2022-10-09T22:51:39.720Z,100829.72
2022-10-09T22:54:09.532Z,100830.66
2022-10-09T22:56:41.484Z,100828.03
2022-10-09T22:59:11.737Z,100831.56
2022-10-09T23:01:45.366Z,100824.56
2022-10-09T23:04:15.777Z,100826.38
2022-10-09T23:06:45.473Z,100818.59
2022-10-09T23:09:16.097Z,100822.22
2022-10-09T23:11:44.861Z,100824.00
2022-10-09T23:14:13.966Z,100817.94
2022-10-09T23:16:42.844Z,100819.72
2022-10-09T23:19:11.809Z,100814.53
2022-10-09T23:21:43.118Z,100813.75
2022-10-09T23:24:17.855Z,100819.91
2022-10-09T23:26:47.513Z,100815.66
2022-10-09T23:29:18.600Z,100823.66
2022-10-09T23:31:48.464Z,100817.56
2022-10-09T23:34:17.015Z,100815.00
2022-10-09T23:36:45.499Z,100814.16
2022-10-09T23:39:15.354Z,100818.53
2022-10-09T23:41:43.923Z,100812.50
2022-10-09T23:44:12.124Z,100811.69
2022-10-09T23:46:40.408Z,100811.69
2022-10-09T23:49:08.647Z,100811.75
2022-10-09T23:51:37.936Z,100807.44
2022-10-09T23:54:07.105Z,100810.09
2022-10-09T23:56:38.107Z,100803.13
2022-10-09T23:59:07.698Z,100803.19
